sensor_id;sensor_type;location;lat;lon;timestamp;P1;durP1;ratioP1;P2;durP2;ratioP2
80195;SDS011;69516;42.050;21.516;2023-04-24T00:01:51;10.75;;;7.82;;
80195;SDS011;69516;42.050;21.516;2023-04-24T00:04:17;12.10;;;8.10;;
80195;SDS011;69516;42.050;21.516;2023-04-24T00:06:43;11.27;;;8.23;;
80195;SDS011;69516;42.050;21.516;2023-04-24T00:09:14;11.98;;;8.20;;
80195;SDS011;69516;42.050;21.516;2023-04-24T00:11:40;10.63;;;7.57;;
80195;SDS011;69516;42.050;21.516;2023-04-24T00:14:06;13.18;;;8.05;;
80195;SDS011;69516;42.050;21.516;2023-04-24T00:16:33;12.13;;;8.57;;
80195;SDS011;69516;42.050;21.516;2023-04-24T00:18:59;12.38;;;8.07;;
80195;SDS011;69516;42.050;21.516;2023-04-24T00:21:25;10.38;;;7.97;;
80195;SDS011;69516;42.050;21.516;2023-04-24T00:23:52;11.52;;;8.35;;
80195;SDS011;69516;42.050;21.516;2023-04-24T00:26:18;10.57;;;7.95;;
80195;SDS011;69516;42.050;21.516;2023-04-24T00:28:44;12.02;;;8.02;;
80195;SDS011;69516;42.050;21.516;2023-04-24T00:31:10;12.75;;;8.32;;
80195;SDS011;69516;42.050;21.516;2023-04-24T00:33:37;11.00;;;8.00;;
80195;SDS011;69516;42.050;21.516;2023-04-24T00:36:03;10.60;;;7.72;;
80195;SDS011;69516;42.050;21.516;2023-04-24T00:38:29;10.95;;;8.07;;
80195;SDS011;69516;42.050;21.516;2023-04-24T00:40:55;12.73;;;8.35;;
80195;SDS011;69516;42.050;21.516;2023-04-24T00:43:21;13.25;;;8.05;;
80195;SDS011;69516;42.050;21.516;2023-04-24T00:45:47;12.55;;;8.10;;
80195;SDS011;69516;42.050;21.516;2023-04-24T00:48:13;12.32;;;8.75;;
80195;SDS011;69516;42.050;21.516;2023-04-24T00:50:40;10.48;;;7.82;;
80195;SDS011;69516;42.050;21.516;2023-04-24T00:53:06;12.05;;;8.20;;
80195;SDS011;69516;42.050;21.516;2023-04-24T00:55:32;12.80;;;8.45;;
80195;SDS011;69516;42.050;21.516;2023-04-24T00:57:58;11.15;;;7.78;;
80195;SDS011;69516;42.050;21.516;2023-04-24T01:00:24;10.70;;;7.55;;
80195;SDS011;69516;42.050;21.516;2023-04-24T01:02:50;13.63;;;8.18;;
80195;SDS011;69516;42.050;21.516;2023-04-24T01:05:18;14.48;;;8.57;;
80195;SDS011;69516;42.050;21.516;2023-04-24T01:07:44;11.80;;;8.15;;
80195;SDS011;69516;42.050;21.516;2023-04-24T01:10:12;14.30;;;9.05;;
80195;SDS011;69516;42.050;21.516;2023-04-24T01:12:39;11.27;;;8.18;;
80195;SDS011;69516;42.050;21.516;2023-04-24T01:15:05;13.80;;;9.02;;
80195;SDS011;69516;42.050;21.516;2023-04-24T01:17:32;12.20;;;7.93;;
80195;SDS011;69516;42.050;21.516;2023-04-24T01:19:59;13.05;;;8.18;;
80195;SDS011;69516;42.050;21.516;2023-04-24T01:22:26;12.38;;;8.30;;
80195;SDS011;69516;42.050;21.516;2023-04-24T01:24:52;12.57;;;8.10;;
80195;SDS011;69516;42.050;21.516;2023-04-24T01:27:19;11.38;;;7.82;;
80195;SDS011;69516;42.050;21.516;2023-04-24T01:29:45;11.52;;;7.85;;
80195;SDS011;69516;42.050;21.516;2023-04-24T01:32:12;11.65;;;7.60;;
80195;SDS011;69516;42.050;21.516;2023-04-24T01:34:38;13.20;;;7.72;;
80195;SDS011;69516;42.050;21.516;2023-04-24T01:37:05;12.70;;;8.68;;
80195;SDS011;69516;42.050;21.516;2023-04-24T01:39:31;12.38;;;8.05;;
80195;SDS011;69516;42.050;21.516;2023-04-24T01:41:58;11.25;;;8.20;;
80195;SDS011;69516;42.050;21.516;2023-04-24T01:44:26;12.15;;;7.15;;
80195;SDS011;69516;42.050;21.516;2023-04-24T01:46:53;13.05;;;8.50;;
80195;SDS011;69516;42.050;21.516;2023-04-24T01:49:20;13.02;;;7.72;;
80195;SDS011;69516;42.050;21.516;2023-04-24T01:51:46;13.50;;;8.57;;
80195;SDS011;69516;42.050;21.516;2023-04-24T01:54:12;11.93;;;8.32;;
80195;SDS011;69516;42.050;21.516;2023-04-24T01:56:42;12.63;;;8.43;;
80195;SDS011;69516;42.050;21.516;2023-04-24T01:59:11;12.02;;;8.57;;
80195;SDS011;69516;42.050;21.516;2023-04-24T02:01:37;12.85;;;8.65;;
80195;SDS011;69516;42.050;21.516;2023-04-24T02:04:04;13.30;;;8.43;;
80195;SDS011;69516;42.050;21.516;2023-04-24T02:06:31;12.65;;;8.35;;
80195;SDS011;69516;42.050;21.516;2023-04-24T02:08:58;11.88;;;8.10;;
80195;SDS011;69516;42.050;21.516;2023-04-24T02:11:24;13.80;;;8.70;;
80195;SDS011;69516;42.050;21.516;2023-04-24T02:13:50;11.50;;;8.40;;
80195;SDS011;69516;42.050;21.516;2023-04-24T02:16:17;12.45;;;8.43;;
80195;SDS011;69516;42.050;21.516;2023-04-24T02:18:43;11.95;;;7.55;;
80195;SDS011;69516;42.050;21.516;2023-04-24T02:21:09;10.85;;;8.45;;
80195;SDS011;69516;42.050;21.516;2023-04-24T02:23:35;12.32;;;7.90;;
80195;SDS011;69516;42.050;21.516;2023-04-24T02:26:01;12.23;;;8.60;;
80195;SDS011;69516;42.050;21.516;2023-04-24T02:28:27;13.07;;;8.73;;
80195;SDS011;69516;42.050;21.516;2023-04-24T02:30:54;12.10;;;8.73;;
80195;SDS011;69516;42.050;21.516;2023-04-24T02:33:20;12.38;;;8.82;;
80195;SDS011;69516;42.050;21.516;2023-04-24T02:35:46;11.10;;;8.15;;
80195;SDS011;69516;42.050;21.516;2023-04-24T02:38:12;12.23;;;8.82;;
80195;SDS011;69516;42.050;21.516;2023-04-24T02:40:38;14.73;;;9.07;;
80195;SDS011;69516;42.050;21.516;2023-04-24T02:43:04;12.15;;;8.48;;
80195;SDS011;69516;42.050;21.516;2023-04-24T02:45:30;12.40;;;8.18;;
80195;SDS011;69516;42.050;21.516;2023-04-24T02:47:59;11.32;;;8.15;;
80195;SDS011;69516;42.050;21.516;2023-04-24T02:50:25;14.32;;;7.72;;
80195;SDS011;69516;42.050;21.516;2023-04-24T02:52:51;11.98;;;8.52;;
80195;SDS011;69516;42.050;21.516;2023-04-24T02:55:17;12.32;;;7.93;;
80195;SDS011;69516;42.050;21.516;2023-04-24T02:57:43;12.45;;;8.65;;
80195;SDS011;69516;42.050;21.516;2023-04-24T03:00:09;13.00;;;8.40;;
80195;SDS011;69516;42.050;21.516;2023-04-24T03:02:36;12.57;;;8.23;;
80195;SDS011;69516;42.050;21.516;2023-04-24T03:05:02;12.88;;;8.60;;
80195;SDS011;69516;42.050;21.516;2023-04-24T03:07:29;13.15;;;8.57;;
80195;SDS011;69516;42.050;21.516;2023-04-24T03:09:56;23.23;;;9.88;;
80195;SDS011;69516;42.050;21.516;2023-04-24T03:12:23;12.77;;;9.30;;
80195;SDS011;69516;42.050;21.516;2023-04-24T03:14:49;14.40;;;10.45;;
80195;SDS011;69516;42.050;21.516;2023-04-24T03:17:15;19.30;;;11.05;;
80195;SDS011;69516;42.050;21.516;2023-04-24T03:19:41;17.10;;;10.13;;
80195;SDS011;69516;42.050;21.516;2023-04-24T03:22:07;16.23;;;9.93;;
80195;SDS011;69516;42.050;21.516;2023-04-24T03:24:34;14.73;;;10.35;;
80195;SDS011;69516;42.050;21.516;2023-04-24T03:27:00;15.68;;;9.38;;
80195;SDS011;69516;42.050;21.516;2023-04-24T03:29:26;15.40;;;10.43;;
80195;SDS011;69516;42.050;21.516;2023-04-24T03:31:52;14.80;;;9.68;;
80195;SDS011;69516;42.050;21.516;2023-04-24T03:34:18;15.30;;;10.07;;
80195;SDS011;69516;42.050;21.516;2023-04-24T03:36:44;14.63;;;10.13;;
80195;SDS011;69516;42.050;21.516;2023-04-24T03:39:12;14.38;;;10.05;;
80195;SDS011;69516;42.050;21.516;2023-04-24T03:41:38;15.82;;;10.40;;
80195;SDS011;69516;42.050;21.516;2023-04-24T03:44:05;13.82;;;9.70;;
80195;SDS011;69516;42.050;21.516;2023-04-24T03:46:31;16.42;;;10.80;;
80195;SDS011;69516;42.050;21.516;2023-04-24T03:48:57;17.83;;;10.90;;
80195;SDS011;69516;42.050;21.516;2023-04-24T03:51:23;18.60;;;11.63;;
80195;SDS011;69516;42.050;21.516;2023-04-24T03:53:50;17.20;;;11.13;;
80195;SDS011;69516;42.050;21.516;2023-04-24T03:56:16;18.33;;;11.27;;
80195;SDS011;69516;42.050;21.516;2023-04-24T03:58:42;22.08;;;11.48;;
80195;SDS011;69516;42.050;21.516;2023-04-24T04:01:08;14.65;;;10.52;;
80195;SDS011;69516;42.050;21.516;2023-04-24T04:03:36;16.42;;;11.30;;
80195;SDS011;69516;42.050;21.516;2023-04-24T04:06:02;18.38;;;10.25;;
80195;SDS011;69516;42.050;21.516;2023-04-24T04:08:28;15.68;;;10.65;;
80195;SDS011;69516;42.050;21.516;2023-04-24T04:10:55;18.35;;;12.00;;
80195;SDS011;69516;42.050;21.516;2023-04-24T04:13:21;15.02;;;10.57;;
80195;SDS011;69516;42.050;21.516;2023-04-24T04:15:47;18.63;;;11.40;;
80195;SDS011;69516;42.050;21.516;2023-04-24T04:18:13;17.70;;;10.93;;
80195;SDS011;69516;42.050;21.516;2023-04-24T04:20:40;16.70;;;9.88;;
80195;SDS011;69516;42.050;21.516;2023-04-24T04:23:06;20.23;;;11.35;;
80195;SDS011;69516;42.050;21.516;2023-04-24T04:25:32;16.15;;;10.93;;
80195;SDS011;69516;42.050;21.516;2023-04-24T04:27:58;15.23;;;10.52;;
80195;SDS011;69516;42.050;21.516;2023-04-24T04:30:24;14.55;;;10.45;;
80195;SDS011;69516;42.050;21.516;2023-04-24T04:32:51;15.93;;;10.23;;
80195;SDS011;69516;42.050;21.516;2023-04-24T04:35:17;18.00;;;11.50;;
80195;SDS011;69516;42.050;21.516;2023-04-24T04:37:43;16.38;;;9.95;;
80195;SDS011;69516;42.050;21.516;2023-04-24T04:40:09;14.25;;;9.43;;
80195;SDS011;69516;42.050;21.516;2023-04-24T04:42:36;14.88;;;10.20;;
80195;SDS011;69516;42.050;21.516;2023-04-24T04:45:08;15.75;;;10.73;;
80195;SDS011;69516;42.050;21.516;2023-04-24T04:47:36;14.27;;;8.95;;
80195;SDS011;69516;42.050;21.516;2023-04-24T04:50:02;13.82;;;9.82;;
80195;SDS011;69516;42.050;21.516;2023-04-24T04:52:29;14.50;;;9.38;;
80195;SDS011;69516;42.050;21.516;2023-04-24T04:54:55;14.13;;;9.75;;
80195;SDS011;69516;42.050;21.516;2023-04-24T04:57:21;14.45;;;10.00;;
80195;SDS011;69516;42.050;21.516;2023-04-24T04:59:47;13.48;;;10.13;;
80195;SDS011;69516;42.050;21.516;2023-04-24T05:02:13;14.80;;;10.52;;
80195;SDS011;69516;42.050;21.516;2023-04-24T05:04:39;15.82;;;10.82;;
80195;SDS011;69516;42.050;21.516;2023-04-24T05:07:06;15.15;;;10.63;;
80195;SDS011;69516;42.050;21.516;2023-04-24T05:09:32;14.63;;;10.98;;
80195;SDS011;69516;42.050;21.516;2023-04-24T05:11:58;13.45;;;10.27;;
80195;SDS011;69516;42.050;21.516;2023-04-24T05:14:24;14.93;;;10.73;;
80195;SDS011;69516;42.050;21.516;2023-04-24T05:16:50;15.82;;;10.80;;
80195;SDS011;69516;42.050;21.516;2023-04-24T05:19:16;16.85;;;11.95;;
80195;SDS011;69516;42.050;21.516;2023-04-24T05:21:42;16.30;;;11.48;;
80195;SDS011;69516;42.050;21.516;2023-04-24T05:24:08;14.65;;;10.43;;
80195;SDS011;69516;42.050;21.516;2023-04-24T05:26:34;15.88;;;11.27;;
80195;SDS011;69516;42.050;21.516;2023-04-24T05:29:01;17.08;;;11.48;;
80195;SDS011;69516;42.050;21.516;2023-04-24T05:31:30;15.63;;;11.52;;
80195;SDS011;69516;42.050;21.516;2023-04-24T05:33:56;19.08;;;12.02;;
80195;SDS011;69516;42.050;21.516;2023-04-24T05:36:22;15.10;;;11.10;;
80195;SDS011;69516;42.050;21.516;2023-04-24T05:38:48;14.98;;;10.98;;
80195;SDS011;69516;42.050;21.516;2023-04-24T05:41:14;17.30;;;10.82;;
80195;SDS011;69516;42.050;21.516;2023-04-24T05:43:41;19.88;;;13.57;;
80195;SDS011;69516;42.050;21.516;2023-04-24T05:46:12;22.33;;;15.40;;
80195;SDS011;69516;42.050;21.516;2023-04-24T05:48:41;22.95;;;14.07;;
80195;SDS011;69516;42.050;21.516;2023-04-24T05:51:08;16.15;;;12.27;;
80195;SDS011;69516;42.050;21.516;2023-04-24T05:53:35;16.05;;;11.85;;
80195;SDS011;69516;42.050;21.516;2023-04-24T05:56:01;18.30;;;12.77;;
80195;SDS011;69516;42.050;21.516;2023-04-24T05:58:27;20.08;;;12.52;;
80195;SDS011;69516;42.050;21.516;2023-04-24T06:00:53;16.48;;;11.98;;
80195;SDS011;69516;42.050;21.516;2023-04-24T06:03:20;16.67;;;12.15;;
80195;SDS011;69516;42.050;21.516;2023-04-24T06:05:46;16.73;;;11.60;;
80195;SDS011;69516;42.050;21.516;2023-04-24T06:08:12;12.55;;;9.15;;
80195;SDS011;69516;42.050;21.516;2023-04-24T06:10:38;14.90;;;10.07;;
80195;SDS011;69516;42.050;21.516;2023-04-24T06:13:05;11.90;;;8.90;;
80195;SDS011;69516;42.050;21.516;2023-04-24T06:15:31;11.18;;;8.02;;
80195;SDS011;69516;42.050;21.516;2023-04-24T06:17:57;12.10;;;8.55;;
80195;SDS011;69516;42.050;21.516;2023-04-24T06:20:24;11.60;;;9.50;;
80195;SDS011;69516;42.050;21.516;2023-04-24T06:22:50;12.18;;;8.80;;
80195;SDS011;69516;42.050;21.516;2023-04-24T06:25:16;15.18;;;9.93;;
80195;SDS011;69516;42.050;21.516;2023-04-24T06:27:53;11.95;;;9.25;;
80195;SDS011;69516;42.050;21.516;2023-04-24T06:30:19;11.70;;;8.20;;
80195;SDS011;69516;42.050;21.516;2023-04-24T06:32:45;10.63;;;7.28;;
80195;SDS011;69516;42.050;21.516;2023-04-24T06:35:11;10.90;;;7.43;;
80195;SDS011;69516;42.050;21.516;2023-04-24T06:37:41;11.93;;;7.78;;
80195;SDS011;69516;42.050;21.516;2023-04-24T06:40:07;12.48;;;8.10;;
80195;SDS011;69516;42.050;21.516;2023-04-24T06:42:33;12.23;;;8.38;;
80195;SDS011;69516;42.050;21.516;2023-04-24T06:45:00;10.00;;;7.15;;
80195;SDS011;69516;42.050;21.516;2023-04-24T06:47:26;10.25;;;8.05;;
80195;SDS011;69516;42.050;21.516;2023-04-24T06:49:52;11.38;;;7.88;;
80195;SDS011;69516;42.050;21.516;2023-04-24T06:52:20;11.27;;;8.27;;
80195;SDS011;69516;42.050;21.516;2023-04-24T06:54:46;11.43;;;6.70;;
80195;SDS011;69516;42.050;21.516;2023-04-24T06:57:12;11.05;;;7.20;;
80195;SDS011;69516;42.050;21.516;2023-04-24T06:59:39;10.68;;;7.35;;
80195;SDS011;69516;42.050;21.516;2023-04-24T07:02:06;11.65;;;7.45;;
80195;SDS011;69516;42.050;21.516;2023-04-24T07:04:32;10.00;;;7.25;;
80195;SDS011;69516;42.050;21.516;2023-04-24T07:06:58;9.35;;;7.70;;
80195;SDS011;69516;42.050;21.516;2023-04-24T07:09:24;10.63;;;7.82;;
80195;SDS011;69516;42.050;21.516;2023-04-24T07:11:51;12.75;;;9.35;;
80195;SDS011;69516;42.050;21.516;2023-04-24T07:14:20;12.02;;;8.68;;
80195;SDS011;69516;42.050;21.516;2023-04-24T07:16:49;12.10;;;8.35;;
80195;SDS011;69516;42.050;21.516;2023-04-24T07:19:16;11.20;;;8.07;;
80195;SDS011;69516;42.050;21.516;2023-04-24T07:21:42;13.15;;;8.70;;
80195;SDS011;69516;42.050;21.516;2023-04-24T07:24:08;11.73;;;8.55;;
80195;SDS011;69516;42.050;21.516;2023-04-24T07:26:36;12.57;;;9.13;;
80195;SDS011;69516;42.050;21.516;2023-04-24T07:29:02;12.38;;;8.55;;
80195;SDS011;69516;42.050;21.516;2023-04-24T07:31:28;11.77;;;8.45;;
80195;SDS011;69516;42.050;21.516;2023-04-24T07:33:55;9.77;;;7.88;;
80195;SDS011;69516;42.050;21.516;2023-04-24T07:36:23;10.93;;;8.02;;
80195;SDS011;69516;42.050;21.516;2023-04-24T07:38:49;10.38;;;7.70;;
80195;SDS011;69516;42.050;21.516;2023-04-24T07:41:16;11.70;;;7.32;;
80195;SDS011;69516;42.050;21.516;2023-04-24T07:43:42;10.93;;;8.10;;
80195;SDS011;69516;42.050;21.516;2023-04-24T07:46:08;10.80;;;7.35;;
80195;SDS011;69516;42.050;21.516;2023-04-24T07:48:35;10.57;;;7.13;;
80195;SDS011;69516;42.050;21.516;2023-04-24T07:51:02;12.07;;;8.02;;
80195;SDS011;69516;42.050;21.516;2023-04-24T07:53:28;9.77;;;8.07;;
80195;SDS011;69516;42.050;21.516;2023-04-24T07:55:54;11.55;;;8.55;;
80195;SDS011;69516;42.050;21.516;2023-04-24T07:58:20;9.90;;;7.60;;
80195;SDS011;69516;42.050;21.516;2023-04-24T08:00:47;12.85;;;8.15;;
80195;SDS011;69516;42.050;21.516;2023-04-24T08:03:19;10.10;;;8.07;;
80195;SDS011;69516;42.050;21.516;2023-04-24T08:05:49;13.52;;;8.52;;
80195;SDS011;69516;42.050;21.516;2023-04-24T08:08:16;10.80;;;7.55;;
80195;SDS011;69516;42.050;21.516;2023-04-24T08:10:42;15.07;;;8.75;;
80195;SDS011;69516;42.050;21.516;2023-04-24T08:13:08;11.25;;;8.48;;
80195;SDS011;69516;42.050;21.516;2023-04-24T08:15:36;13.82;;;8.23;;
80195;SDS011;69516;42.050;21.516;2023-04-24T08:18:02;10.40;;;8.00;;
80195;SDS011;69516;42.050;21.516;2023-04-24T08:20:28;10.80;;;7.70;;
80195;SDS011;69516;42.050;21.516;2023-04-24T08:22:55;11.88;;;8.35;;
80195;SDS011;69516;42.050;21.516;2023-04-24T08:25:21;11.38;;;8.20;;
80195;SDS011;69516;42.050;21.516;2023-04-24T08:27:49;11.40;;;8.57;;
80195;SDS011;69516;42.050;21.516;2023-04-24T08:30:15;10.23;;;8.27;;
80195;SDS011;69516;42.050;21.516;2023-04-24T08:32:41;10.63;;;8.32;;
80195;SDS011;69516;42.050;21.516;2023-04-24T08:35:08;11.63;;;8.50;;
80195;SDS011;69516;42.050;21.516;2023-04-24T08:37:34;10.75;;;8.18;;
80195;SDS011;69516;42.050;21.516;2023-04-24T08:40:01;11.80;;;8.13;;
80195;SDS011;69516;42.050;21.516;2023-04-24T08:42:28;15.38;;;8.30;;
80195;SDS011;69516;42.050;21.516;2023-04-24T08:44:54;11.52;;;7.82;;
80195;SDS011;69516;42.050;21.516;2023-04-24T08:47:20;12.45;;;8.50;;
80195;SDS011;69516;42.050;21.516;2023-04-24T08:49:58;14.20;;;9.68;;
80195;SDS011;69516;42.050;21.516;2023-04-24T08:52:28;12.15;;;8.27;;
80195;SDS011;69516;42.050;21.516;2023-04-24T08:54:54;11.32;;;8.00;;
80195;SDS011;69516;42.050;21.516;2023-04-24T08:57:20;8.15;;;7.03;;
80195;SDS011;69516;42.050;21.516;2023-04-24T08:59:47;10.77;;;8.00;;
80195;SDS011;69516;42.050;21.516;2023-04-24T09:02:14;9.63;;;7.30;;
80195;SDS011;69516;42.050;21.516;2023-04-24T09:04:40;12.40;;;7.38;;
80195;SDS011;69516;42.050;21.516;2023-04-24T09:07:06;11.80;;;6.93;;
80195;SDS011;69516;42.050;21.516;2023-04-24T09:09:34;9.70;;;6.85;;
80195;SDS011;69516;42.050;21.516;2023-04-24T09:12:04;15.38;;;8.55;;
80195;SDS011;69516;42.050;21.516;2023-04-24T09:14:30;12.15;;;7.07;;
80195;SDS011;69516;42.050;21.516;2023-04-24T09:16:57;9.35;;;6.35;;
80195;SDS011;69516;42.050;21.516;2023-04-24T09:19:23;9.85;;;6.75;;
80195;SDS011;69516;42.050;21.516;2023-04-24T09:21:49;10.32;;;6.82;;
80195;SDS011;69516;42.050;21.516;2023-04-24T09:24:20;9.60;;;6.93;;
80195;SDS011;69516;42.050;21.516;2023-04-24T09:26:55;10.02;;;6.13;;
80195;SDS011;69516;42.050;21.516;2023-04-24T09:29:26;8.68;;;6.47;;
80195;SDS011;69516;42.050;21.516;2023-04-24T09:31:53;9.07;;;6.45;;
80195;SDS011;69516;42.050;21.516;2023-04-24T09:34:26;8.98;;;6.72;;
80195;SDS011;69516;42.050;21.516;2023-04-24T09:36:57;9.05;;;6.25;;
80195;SDS011;69516;42.050;21.516;2023-04-24T09:39:26;10.00;;;7.32;;
80195;SDS011;69516;42.050;21.516;2023-04-24T09:41:53;9.85;;;7.40;;
80195;SDS011;69516;42.050;21.516;2023-04-24T09:44:23;10.60;;;6.90;;
80195;SDS011;69516;42.050;21.516;2023-04-24T09:49:21;10.05;;;6.15;;
80195;SDS011;69516;42.050;21.516;2023-04-24T09:51:48;9.90;;;6.68;;
80195;SDS011;69516;42.050;21.516;2023-04-24T09:54:15;11.70;;;6.80;;
80195;SDS011;69516;42.050;21.516;2023-04-24T09:56:42;11.18;;;8.13;;
80195;SDS011;69516;42.050;21.516;2023-04-24T09:59:09;10.35;;;6.70;;
80195;SDS011;69516;42.050;21.516;2023-04-24T10:01:35;11.60;;;7.13;;
80195;SDS011;69516;42.050;21.516;2023-04-24T10:04:03;9.93;;;6.93;;
80195;SDS011;69516;42.050;21.516;2023-04-24T10:06:34;8.98;;;6.28;;
80195;SDS011;69516;42.050;21.516;2023-04-24T10:09:00;9.35;;;6.95;;
80195;SDS011;69516;42.050;21.516;2023-04-24T10:11:27;10.60;;;6.43;;
80195;SDS011;69516;42.050;21.516;2023-04-24T10:13:53;8.27;;;6.25;;
80195;SDS011;69516;42.050;21.516;2023-04-24T10:16:21;9.50;;;6.60;;
80195;SDS011;69516;42.050;21.516;2023-04-24T10:18:47;8.55;;;6.80;;
80195;SDS011;69516;42.050;21.516;2023-04-24T10:21:14;11.65;;;7.22;;
80195;SDS011;69516;42.050;21.516;2023-04-24T10:23:40;11.63;;;7.32;;
80195;SDS011;69516;42.050;21.516;2023-04-24T10:26:08;12.32;;;7.55;;
80195;SDS011;69516;42.050;21.516;2023-04-24T10:28:35;10.02;;;6.30;;
80195;SDS011;69516;42.050;21.516;2023-04-24T10:31:02;9.68;;;6.13;;
80195;SDS011;69516;42.050;21.516;2023-04-24T10:33:29;8.73;;;6.28;;
80195;SDS011;69516;42.050;21.516;2023-04-24T10:35:55;11.73;;;6.05;;
80195;SDS011;69516;42.050;21.516;2023-04-24T10:38:24;9.30;;;5.40;;
80195;SDS011;69516;42.050;21.516;2023-04-24T10:40:50;8.25;;;5.78;;
80195;SDS011;69516;42.050;21.516;2023-04-24T10:43:17;9.23;;;5.75;;
80195;SDS011;69516;42.050;21.516;2023-04-24T10:45:59;8.55;;;6.07;;
80195;SDS011;69516;42.050;21.516;2023-04-24T10:48:26;9.07;;;5.93;;
80195;SDS011;69516;42.050;21.516;2023-04-24T10:50:53;12.00;;;5.95;;
80195;SDS011;69516;42.050;21.516;2023-04-24T10:53:20;8.15;;;5.68;;
80195;SDS011;69516;42.050;21.516;2023-04-24T10:55:51;11.40;;;6.20;;
80195;SDS011;69516;42.050;21.516;2023-04-24T10:58:24;12.75;;;6.70;;
80195;SDS011;69516;42.050;21.516;2023-04-24T11:00:57;12.60;;;6.60;;
80195;SDS011;69516;42.050;21.516;2023-04-24T11:03:27;10.32;;;5.93;;
80195;SDS011;69516;42.050;21.516;2023-04-24T11:08:26;8.43;;;6.10;;
80195;SDS011;69516;42.050;21.516;2023-04-24T11:19:36;7.20;;;5.90;;
80195;SDS011;69516;42.050;21.516;2023-04-24T11:21:59;8.98;;;5.85;;
80195;SDS011;69516;42.050;21.516;2023-04-24T11:26:57;9.88;;;6.00;;
80195;SDS011;69516;42.050;21.516;2023-04-24T11:29:37;8.13;;;5.85;;
80195;SDS011;69516;42.050;21.516;2023-04-24T11:32:17;8.75;;;6.10;;
80195;SDS011;69516;42.050;21.516;2023-04-24T11:34:51;9.65;;;6.13;;
80195;SDS011;69516;42.050;21.516;2023-04-24T11:37:17;7.57;;;5.90;;
80195;SDS011;69516;42.050;21.516;2023-04-24T11:39:43;8.48;;;6.07;;
80195;SDS011;69516;42.050;21.516;2023-04-24T11:42:09;8.07;;;5.90;;
80195;SDS011;69516;42.050;21.516;2023-04-24T11:44:36;10.55;;;6.47;;
80195;SDS011;69516;42.050;21.516;2023-04-24T11:47:06;8.88;;;6.20;;
80195;SDS011;69516;42.050;21.516;2023-04-24T11:49:33;9.82;;;6.25;;
80195;SDS011;69516;42.050;21.516;2023-04-24T11:52:00;10.30;;;6.60;;
80195;SDS011;69516;42.050;21.516;2023-04-24T11:54:26;8.70;;;6.25;;
80195;SDS011;69516;42.050;21.516;2023-04-24T11:56:53;10.50;;;6.22;;
80195;SDS011;69516;42.050;21.516;2023-04-24T11:59:19;8.63;;;6.30;;
80195;SDS011;69516;42.050;21.516;2023-04-24T12:01:45;10.38;;;6.28;;
80195;SDS011;69516;42.050;21.516;2023-04-24T12:04:12;9.77;;;5.88;;
80195;SDS011;69516;42.050;21.516;2023-04-24T12:06:38;11.18;;;5.97;;
80195;SDS011;69516;42.050;21.516;2023-04-24T12:09:04;10.98;;;6.20;;
80195;SDS011;69516;42.050;21.516;2023-04-24T12:11:31;9.65;;;6.70;;
80195;SDS011;69516;42.050;21.516;2023-04-24T12:13:57;9.48;;;6.55;;
80195;SDS011;69516;42.050;21.516;2023-04-24T12:16:26;10.60;;;6.22;;
80195;SDS011;69516;42.050;21.516;2023-04-24T12:18:52;10.45;;;6.28;;
80195;SDS011;69516;42.050;21.516;2023-04-24T12:21:19;7.97;;;5.85;;
80195;SDS011;69516;42.050;21.516;2023-04-24T12:23:45;8.38;;;5.63;;
80195;SDS011;69516;42.050;21.516;2023-04-24T12:26:12;7.82;;;6.05;;
80195;SDS011;69516;42.050;21.516;2023-04-24T12:28:42;34.55;;;23.50;;
80195;SDS011;69516;42.050;21.516;2023-04-24T12:31:09;11.60;;;5.88;;
80195;SDS011;69516;42.050;21.516;2023-04-24T12:33:35;10.80;;;5.82;;
80195;SDS011;69516;42.050;21.516;2023-04-24T12:36:01;7.38;;;5.78;;
80195;SDS011;69516;42.050;21.516;2023-04-24T12:38:28;11.05;;;5.78;;
80195;SDS011;69516;42.050;21.516;2023-04-24T12:41:02;10.40;;;5.63;;
80195;SDS011;69516;42.050;21.516;2023-04-24T12:43:29;10.50;;;5.80;;
80195;SDS011;69516;42.050;21.516;2023-04-24T12:45:55;8.55;;;5.72;;
80195;SDS011;69516;42.050;21.516;2023-04-24T12:48:22;7.05;;;5.13;;
80195;SDS011;69516;42.050;21.516;2023-04-24T12:50:48;8.40;;;6.30;;
80195;SDS011;69516;42.050;21.516;2023-04-24T12:53:14;11.82;;;5.88;;
80195;SDS011;69516;42.050;21.516;2023-04-24T12:55:41;9.27;;;5.72;;
80195;SDS011;69516;42.050;21.516;2023-04-24T12:58:07;7.95;;;5.53;;
80195;SDS011;69516;42.050;21.516;2023-04-24T13:00:33;7.93;;;5.60;;
80195;SDS011;69516;42.050;21.516;2023-04-24T13:03:00;7.80;;;5.50;;
80195;SDS011;69516;42.050;21.516;2023-04-24T13:05:26;7.05;;;4.88;;
80195;SDS011;69516;42.050;21.516;2023-04-24T13:07:52;7.40;;;5.15;;
80195;SDS011;69516;42.050;21.516;2023-04-24T13:10:18;11.23;;;5.40;;
80195;SDS011;69516;42.050;21.516;2023-04-24T13:12:44;8.38;;;5.40;;
80195;SDS011;69516;42.050;21.516;2023-04-24T13:15:11;6.50;;;4.28;;
80195;SDS011;69516;42.050;21.516;2023-04-24T13:17:37;7.47;;;4.95;;
80195;SDS011;69516;42.050;21.516;2023-04-24T13:20:04;10.77;;;5.50;;
80195;SDS011;69516;42.050;21.516;2023-04-24T13:22:30;6.43;;;4.97;;
80195;SDS011;69516;42.050;21.516;2023-04-24T13:24:57;9.50;;;4.88;;
80195;SDS011;69516;42.050;21.516;2023-04-24T13:27:23;8.25;;;5.20;;
80195;SDS011;69516;42.050;21.516;2023-04-24T13:29:49;6.85;;;5.03;;
80195;SDS011;69516;42.050;21.516;2023-04-24T13:32:16;9.32;;;5.28;;
80195;SDS011;69516;42.050;21.516;2023-04-24T13:34:42;7.05;;;4.78;;
80195;SDS011;69516;42.050;21.516;2023-04-24T13:37:09;7.45;;;5.32;;
80195;SDS011;69516;42.050;21.516;2023-04-24T13:39:35;6.97;;;4.82;;
80195;SDS011;69516;42.050;21.516;2023-04-24T13:42:01;7.18;;;5.20;;
80195;SDS011;69516;42.050;21.516;2023-04-24T13:44:27;8.52;;;5.13;;
80195;SDS011;69516;42.050;21.516;2023-04-24T13:46:54;11.75;;;5.50;;
80195;SDS011;69516;42.050;21.516;2023-04-24T13:49:22;9.55;;;6.18;;
80195;SDS011;69516;42.050;21.516;2023-04-24T13:51:50;8.73;;;5.63;;
80195;SDS011;69516;42.050;21.516;2023-04-24T13:54:16;12.77;;;7.03;;
80195;SDS011;69516;42.050;21.516;2023-04-24T13:56:42;10.07;;;7.32;;
80195;SDS011;69516;42.050;21.516;2023-04-24T13:59:08;11.05;;;6.85;;
80195;SDS011;69516;42.050;21.516;2023-04-24T14:01:34;11.88;;;7.10;;
80195;SDS011;69516;42.050;21.516;2023-04-24T14:04:01;10.27;;;6.93;;
80195;SDS011;69516;42.050;21.516;2023-04-24T14:06:27;11.38;;;7.15;;
80195;SDS011;69516;42.050;21.516;2023-04-24T14:08:53;15.38;;;11.80;;
80195;SDS011;69516;42.050;21.516;2023-04-24T14:11:19;11.20;;;8.20;;
80195;SDS011;69516;42.050;21.516;2023-04-24T14:13:45;9.48;;;6.95;;
80195;SDS011;69516;42.050;21.516;2023-04-24T14:16:12;11.25;;;6.22;;
80195;SDS011;69516;42.050;21.516;2023-04-24T14:18:39;9.27;;;5.90;;
80195;SDS011;69516;42.050;21.516;2023-04-24T14:21:05;12.27;;;6.25;;
80195;SDS011;69516;42.050;21.516;2023-04-24T14:23:31;9.27;;;6.15;;
80195;SDS011;69516;42.050;21.516;2023-04-24T14:25:57;7.55;;;5.47;;
80195;SDS011;69516;42.050;21.516;2023-04-24T14:28:24;8.82;;;5.50;;
80195;SDS011;69516;42.050;21.516;2023-04-24T14:30:51;8.77;;;5.70;;
80195;SDS011;69516;42.050;21.516;2023-04-24T14:33:18;7.40;;;4.90;;
80195;SDS011;69516;42.050;21.516;2023-04-24T14:35:44;6.32;;;4.40;;
80195;SDS011;69516;42.050;21.516;2023-04-24T14:38:10;7.65;;;5.28;;